createdAt,value
2022-07-29T00:00:45.581Z,13.00
2022-07-29T00:03:17.595Z,12.90
2022-07-29T00:05:49.628Z,12.90
2022-07-29T00:08:23.976Z,12.90
2022-07-29T00:10:59.495Z,12.90
2022-07-29T00:13:32.286Z,12.90
2022-07-29T00:16:05.424Z,12.90
2022-07-29T00:18:40.509Z,12.80
2022-07-29T00:21:12.459Z,12.80
2022-07-29T00:23:44.328Z,12.80
2022-07-29T00:26:16.279Z,12.70
2022-07-29T00:28:48.448Z,12.70
2022-07-29T00:31:20.351Z,12.70
2022-07-29T00:33:52.237Z,12.60
2022-07-29T00:36:24.744Z,12.60
2022-07-29T00:38:56.752Z,12.60
2022-07-29T00:41:28.782Z,12.60
2022-07-29T00:44:00.677Z,12.60
2022-07-29T00:46:32.664Z,12.50
2022-07-29T00:49:04.689Z,12.50
2022-07-29T00:51:42.143Z,12.50
2022-07-29T00:54:14.236Z,12.50
2022-07-29T00:56:46.428Z,12.50
2022-07-29T00:59:18.336Z,12.50
2022-07-29T01:01:50.376Z,12.50
2022-07-29T01:04:23.005Z,12.50
2022-07-29T01:06:55.708Z,12.50
2022-07-29T01:09:45.194Z,12.40
2022-07-29T01:12:27.749Z,12.40
2022-07-29T01:15:03.323Z,12.40
2022-07-29T01:17:53.236Z,12.40
2022-07-29T01:20:32.990Z,12.30
2022-07-29T01:23:10.816Z,12.30
2022-07-29T01:26:23.949Z,12.30
2022-07-29T01:29:17.923Z,12.30
2022-07-29T01:31:59.187Z,12.20
2022-07-29T01:34:37.717Z,12.20
2022-07-29T01:37:30.718Z,12.20
2022-07-29T01:40:05.429Z,12.20
2022-07-29T01:42:39.564Z,12.20
2022-07-29T01:45:23.687Z,12.20
2022-07-29T01:48:28.524Z,12.10
2022-07-29T01:51:13.346Z,12.10
2022-07-29T01:54:14.316Z,12.10
2022-07-29T01:56:50.244Z,12.10
2022-07-29T01:59:22.834Z,12.10
2022-07-29T02:02:01.925Z,12.00
2022-07-29T02:04:39.658Z,12.00
2022-07-29T02:07:16.717Z,12.00
2022-07-29T02:09:50.424Z,12.00
2022-07-29T02:12:24.792Z,12.00
2022-07-29T02:15:00.503Z,12.00
2022-07-29T02:17:38.750Z,11.90
2022-07-29T02:20:14.811Z,11.90
2022-07-29T02:22:48.675Z,11.90
2022-07-29T02:25:23.195Z,11.90
2022-07-29T02:27:56.932Z,11.90
2022-07-29T02:30:30.139Z,11.90
2022-07-29T02:33:04.375Z,11.90
2022-07-29T02:35:36.604Z,11.80
2022-07-29T02:38:31.607Z,11.80
2022-07-29T02:41:08.981Z,11.80
2022-07-29T02:43:43.145Z,11.80
2022-07-29T02:46:28.574Z,11.80
2022-07-29T02:49:20.101Z,11.80
2022-07-29T02:52:27.171Z,11.70
2022-07-29T02:55:22.076Z,11.70
2022-07-29T02:58:08.946Z,11.70
2022-07-29T03:00:45.832Z,11.80
2022-07-29T03:03:22.325Z,11.80
2022-07-29T03:05:57.709Z,11.80
2022-07-29T03:08:30.285Z,11.80
2022-07-29T03:11:03.180Z,11.90
2022-07-29T03:13:36.797Z,11.90
2022-07-29T03:16:12.265Z,12.00
2022-07-29T03:18:44.377Z,12.00
2022-07-29T03:21:16.464Z,12.00
2022-07-29T03:23:48.910Z,12.00
2022-07-29T03:26:20.794Z,12.10
2022-07-29T03:28:52.694Z,12.20
2022-07-29T03:31:24.645Z,12.20
2022-07-29T03:33:57.052Z,12.30
2022-07-29T03:36:29.046Z,12.40
2022-07-29T03:39:02.466Z,12.50
2022-07-29T03:41:36.668Z,12.50
2022-07-29T03:44:10.092Z,12.70
2022-07-29T03:46:45.716Z,12.80
2022-07-29T03:49:21.341Z,12.90
2022-07-29T03:51:53.552Z,13.00
2022-07-29T03:54:27.951Z,13.10
2022-07-29T03:57:05.359Z,13.30
2022-07-29T03:59:38.944Z,13.40
2022-07-29T04:02:12.784Z,13.50
2022-07-29T04:04:44.972Z,13.60
2022-07-29T04:07:17.437Z,13.60
2022-07-29T04:09:49.373Z,13.70
2022-07-29T04:12:22.066Z,13.70
2022-07-29T04:14:56.284Z,13.70
2022-07-29T04:17:28.261Z,13.70
2022-07-29T04:20:00.284Z,13.80
2022-07-29T04:22:32.241Z,13.90
2022-07-29T04:25:05.356Z,13.90
2022-07-29T04:27:57.167Z,14.10
2022-07-29T04:30:32.527Z,14.20
2022-07-29T04:33:09.286Z,14.40
2022-07-29T04:35:49.924Z,14.50
2022-07-29T04:38:24.295Z,14.70
2022-07-29T04:40:56.236Z,14.90
2022-07-29T04:43:28.258Z,15.10
2022-07-29T04:46:10.836Z,15.30
2022-07-29T04:48:43.239Z,15.60
2022-07-29T04:51:18.558Z,15.90
2022-07-29T04:53:50.416Z,16.10
2022-07-29T04:56:25.093Z,16.40
2022-07-29T04:58:57.250Z,16.50
2022-07-29T05:01:31.298Z,16.70
2022-07-29T05:04:03.244Z,16.90
2022-07-29T05:06:35.556Z,17.10
2022-07-29T05:09:07.502Z,17.30
2022-07-29T05:11:39.460Z,17.50
2022-07-29T05:14:11.366Z,17.80
2022-07-29T05:16:44.426Z,18.00
2022-07-29T05:19:16.394Z,18.20
2022-07-29T05:21:48.908Z,18.40
2022-07-29T05:24:20.750Z,18.40
2022-07-29T05:26:53.155Z,18.30
2022-07-29T05:29:44.238Z,18.30
2022-07-29T05:32:17.392Z,18.20
2022-07-29T05:34:50.748Z,18.10
2022-07-29T05:37:24.047Z,18.00
2022-07-29T05:39:57.492Z,18.00
2022-07-29T05:42:31.268Z,18.00
2022-07-29T05:45:04.036Z,18.20
2022-07-29T05:47:36.530Z,18.50
2022-07-29T05:50:09.659Z,18.70
2022-07-29T05:52:44.121Z,18.70
2022-07-29T05:55:16.164Z,18.80
2022-07-29T05:57:50.583Z,18.90
2022-07-29T06:00:24.700Z,19.00
2022-07-29T06:02:56.655Z,18.90
2022-07-29T06:05:29.162Z,18.80
2022-07-29T06:08:01.159Z,18.60
2022-07-29T06:10:33.090Z,18.80
2022-07-29T06:13:04.982Z,19.80
2022-07-29T06:15:37.481Z,21.50
2022-07-29T06:18:11.220Z,23.30
2022-07-29T06:20:43.383Z,25.10
2022-07-29T06:23:15.363Z,26.70
2022-07-29T06:25:47.755Z,28.80
2022-07-29T06:28:20.086Z,29.90
2022-07-29T06:30:52.528Z,30.90
2022-07-29T06:33:24.593Z,32.00
2022-07-29T06:35:56.865Z,33.10
2022-07-29T06:38:31.083Z,34.30
2022-07-29T06:41:13.636Z,34.70
2022-07-29T06:43:52.612Z,33.60
2022-07-29T06:46:30.040Z,33.70
2022-07-29T06:49:03.903Z,33.90
2022-07-29T06:51:35.846Z,34.70
2022-07-29T06:54:07.793Z,34.60
2022-07-29T06:56:42.886Z,34.30
2022-07-29T06:59:20.551Z,33.60
2022-07-29T07:01:55.324Z,32.70
2022-07-29T07:04:27.212Z,32.00
2022-07-29T07:07:00.198Z,32.70
2022-07-29T07:09:40.126Z,33.00
2022-07-29T07:12:15.062Z,32.10
2022-07-29T07:14:49.310Z,31.50
2022-07-29T07:17:21.243Z,31.20
2022-07-29T07:19:53.113Z,30.70
2022-07-29T07:22:24.972Z,29.40
2022-07-29T07:24:59.310Z,28.80
2022-07-29T07:27:32.328Z,28.10
2022-07-29T07:30:09.605Z,27.80
2022-07-29T07:32:41.520Z,27.80
2022-07-29T07:35:13.510Z,27.70
2022-07-29T07:37:47.565Z,27.00
2022-07-29T07:40:19.540Z,26.70
2022-07-29T07:42:51.906Z,25.90
2022-07-29T07:45:24.550Z,24.90
2022-07-29T07:47:58.927Z,24.10
2022-07-29T07:50:30.857Z,23.80
2022-07-29T07:53:03.317Z,23.80
2022-07-29T07:56:08.269Z,23.80
2022-07-29T07:58:32.418Z,23.80
2022-07-29T08:01:04.652Z,23.40
2022-07-29T08:03:39.930Z,23.40
2022-07-29T08:06:12.390Z,23.30
2022-07-29T08:08:45.354Z,23.40
2022-07-29T08:11:21.440Z,23.10
2022-07-29T08:13:53.321Z,22.80
2022-07-29T08:16:26.326Z,23.00
2022-07-29T08:18:58.255Z,23.00
2022-07-29T08:21:30.120Z,23.20
2022-07-29T08:24:20.382Z,23.20
2022-07-29T08:26:54.773Z,23.70
2022-07-29T08:29:26.602Z,24.10
2022-07-29T08:31:58.721Z,23.70
2022-07-29T08:34:31.118Z,23.60
2022-07-29T08:37:05.353Z,23.60
2022-07-29T08:39:37.755Z,23.70
2022-07-29T08:42:10.681Z,24.00
2022-07-29T08:44:45.276Z,24.10
2022-07-29T08:47:17.863Z,24.00
2022-07-29T08:49:49.767Z,24.10
2022-07-29T08:52:22.933Z,24.30
2022-07-29T08:54:57.427Z,24.30
2022-07-29T08:57:30.650Z,24.20
2022-07-29T09:00:12.193Z,24.30
2022-07-29T09:02:52.786Z,24.00
2022-07-29T09:05:29.335Z,24.10
2022-07-29T09:08:02.755Z,23.90
2022-07-29T09:10:36.768Z,24.00
2022-07-29T09:13:08.857Z,24.40
2022-07-29T09:15:41.204Z,24.70
2022-07-29T09:18:19.318Z,24.80
2022-07-29T09:21:12.759Z,24.60
2022-07-29T09:24:07.068Z,25.10
2022-07-29T09:26:46.880Z,25.30
2022-07-29T09:29:21.094Z,25.30
2022-07-29T09:31:55.161Z,25.20
2022-07-29T09:34:29.585Z,24.60
2022-07-29T09:37:06.615Z,23.70
2022-07-29T09:39:49.475Z,22.90
2022-07-29T09:42:34.874Z,22.40
2022-07-29T09:45:07.184Z,22.00
2022-07-29T09:47:50.330Z,21.80
2022-07-29T09:50:25.034Z,21.80
2022-07-29T09:52:56.888Z,21.70
2022-07-29T09:55:28.869Z,21.40
2022-07-29T09:58:17.801Z,21.20
2022-07-29T10:00:56.357Z,21.40
2022-07-29T10:03:30.677Z,21.50
2022-07-29T10:06:12.400Z,21.50
2022-07-29T10:08:44.583Z,21.60
2022-07-29T10:11:18.708Z,21.60
2022-07-29T10:13:50.696Z,21.70
2022-07-29T10:16:22.705Z,21.60
2022-07-29T10:18:57.566Z,21.50
2022-07-29T10:21:35.816Z,21.50
2022-07-29T10:24:14.881Z,21.50
2022-07-29T10:26:50.110Z,21.50
2022-07-29T10:29:22.109Z,21.40
2022-07-29T10:32:09.957Z,21.50
2022-07-29T10:35:37.060Z,21.30
2022-07-29T10:38:27.571Z,21.30
2022-07-29T10:41:32.490Z,21.20
2022-07-29T10:44:23.164Z,21.20
2022-07-29T10:46:56.249Z,21.30
2022-07-29T10:49:31.145Z,21.30
2022-07-29T10:52:09.040Z,21.20
2022-07-29T10:54:49.319Z,21.10
2022-07-29T10:57:53.882Z,21.10
2022-07-29T11:00:28.531Z,21.10
2022-07-29T11:03:01.254Z,21.00
2022-07-29T11:05:59.452Z,20.90
2022-07-29T11:09:35.050Z,20.80
2022-07-29T11:12:52.158Z,20.80
2022-07-29T11:15:25.214Z,20.80
2022-07-29T11:18:03.531Z,20.90
2022-07-29T11:20:51.243Z,21.00
2022-07-29T11:23:28.334Z,20.90
2022-07-29T11:26:24.084Z,20.90
2022-07-29T11:29:15.042Z,20.80
2022-07-29T11:31:51.765Z,20.70
2022-07-29T11:34:33.436Z,20.70
2022-07-29T11:37:13.724Z,20.70
2022-07-29T11:40:02.081Z,20.60
2022-07-29T11:42:37.209Z,20.50
2022-07-29T11:45:42.696Z,20.60
2022-07-29T11:48:29.854Z,20.80
2022-07-29T11:51:11.709Z,20.70
2022-07-29T11:53:52.606Z,20.70
2022-07-29T11:56:27.518Z,20.70
2022-07-29T11:59:10.171Z,20.60
2022-07-29T12:02:18.469Z,20.50
2022-07-29T12:04:51.773Z,20.50
2022-07-29T12:07:36.202Z,20.60
2022-07-29T12:10:11.430Z,20.60
2022-07-29T12:12:54.729Z,20.60
2022-07-29T12:15:31.517Z,20.60
2022-07-29T12:18:24.373Z,20.80
2022-07-29T12:21:06.921Z,20.90
2022-07-29T12:23:38.796Z,20.80
2022-07-29T12:26:25.547Z,20.80
2022-07-29T12:28:58.273Z,20.90
2022-07-29T12:31:43.791Z,20.80
2022-07-29T12:34:17.554Z,20.80
2022-07-29T12:36:50.781Z,20.80
2022-07-29T12:39:27.501Z,20.80
2022-07-29T12:42:04.670Z,20.60
2022-07-29T12:44:52.559Z,20.50
2022-07-29T12:47:24.711Z,20.60
2022-07-29T12:50:16.112Z,20.80
2022-07-29T12:52:48.576Z,20.80
2022-07-29T12:55:43.452Z,21.00
2022-07-29T12:58:36.095Z,21.10
2022-07-29T13:01:16.851Z,21.10
2022-07-29T13:04:05.230Z,21.00
2022-07-29T13:06:51.068Z,21.20
2022-07-29T13:09:32.121Z,21.20
2022-07-29T13:12:09.029Z,21.20
2022-07-29T13:14:45.491Z,21.10
2022-07-29T13:17:21.726Z,21.00
2022-07-29T13:20:10.283Z,20.90
2022-07-29T13:22:43.492Z,20.70
2022-07-29T13:25:15.384Z,20.60
2022-07-29T13:27:47.367Z,20.70
2022-07-29T13:30:19.254Z,20.70
2022-07-29T13:32:54.134Z,20.80
2022-07-29T13:35:26.098Z,20.90
2022-07-29T13:37:58.069Z,21.00
2022-07-29T13:40:31.314Z,21.00
2022-07-29T13:43:05.684Z,21.00
2022-07-29T13:45:37.721Z,20.90
2022-07-29T13:48:09.703Z,20.90
2022-07-29T13:50:43.877Z,20.90
2022-07-29T13:53:18.224Z,20.80
2022-07-29T13:55:50.683Z,20.60
2022-07-29T13:58:25.035Z,20.60
2022-07-29T14:00:57.999Z,20.50
2022-07-29T14:03:30.254Z,20.50
2022-07-29T14:06:02.149Z,20.40
2022-07-29T14:08:34.152Z,20.50
2022-07-29T14:11:08.481Z,20.60
2022-07-29T14:13:40.422Z,20.80
2022-07-29T14:16:13.034Z,21.00
2022-07-29T14:18:45.139Z,21.00
2022-07-29T14:21:18.095Z,21.10
2022-07-29T14:23:53.140Z,20.90
2022-07-29T14:26:26.110Z,20.90
2022-07-29T14:29:01.850Z,20.90
2022-07-29T14:31:36.035Z,21.00
2022-07-29T14:34:08.133Z,21.00
2022-07-29T14:36:40.020Z,21.00
2022-07-29T14:39:12.464Z,20.90
2022-07-29T14:41:45.155Z,20.50
2022-07-29T14:44:19.556Z,20.30
2022-07-29T14:46:53.559Z,20.30
2022-07-29T14:49:25.914Z,20.50
2022-07-29T14:51:57.914Z,20.60
2022-07-29T14:54:29.957Z,20.70
2022-07-29T14:57:02.424Z,20.80
2022-07-29T14:59:34.299Z,20.90
2022-07-29T15:02:06.215Z,20.90
2022-07-29T15:04:38.172Z,20.90
2022-07-29T15:07:12.349Z,20.80
2022-07-29T15:09:49.581Z,20.80
2022-07-29T15:12:22.046Z,20.80
2022-07-29T15:14:54.403Z,20.90
2022-07-29T15:17:29.001Z,20.90
2022-07-29T15:20:00.950Z,20.70
2022-07-29T15:22:35.385Z,20.70
2022-07-29T15:25:08.533Z,20.60
2022-07-29T15:27:40.477Z,20.40
2022-07-29T15:30:32.857Z,20.10
2022-07-29T15:33:04.958Z,19.90
2022-07-29T15:35:40.633Z,19.90
2022-07-29T15:38:12.814Z,20.00
2022-07-29T15:40:45.502Z,20.10
2022-07-29T15:43:17.427Z,20.20
2022-07-29T15:46:10.409Z,20.30
2022-07-29T15:48:42.852Z,20.40
2022-07-29T15:51:14.891Z,20.50
2022-07-29T15:53:53.544Z,20.60
2022-07-29T15:56:25.815Z,20.50
2022-07-29T15:58:58.742Z,20.50
2022-07-29T16:01:31.326Z,20.50
2022-07-29T16:04:04.015Z,20.40
2022-07-29T16:06:36.519Z,20.40
2022-07-29T16:09:11.603Z,20.30
2022-07-29T16:11:44.418Z,20.20
2022-07-29T16:14:16.731Z,20.10
2022-07-29T16:16:51.439Z,20.10
2022-07-29T16:19:25.893Z,20.00
2022-07-29T16:22:00.335Z,19.80
2022-07-29T16:24:33.037Z,19.70
2022-07-29T16:27:05.724Z,19.50
2022-07-29T16:29:37.657Z,19.50
2022-07-29T16:32:12.100Z,19.30
2022-07-29T16:34:44.638Z,19.20
2022-07-29T16:37:19.100Z,19.00
2022-07-29T16:39:51.591Z,18.90
2022-07-29T16:42:44.333Z,18.80
2022-07-29T16:45:21.223Z,18.70
2022-07-29T16:48:00.403Z,18.50
2022-07-29T16:50:33.471Z,18.50
2022-07-29T16:53:05.393Z,18.40
2022-07-29T16:55:38.742Z,18.50
2022-07-29T16:58:14.548Z,18.60
2022-07-29T17:00:46.486Z,18.60
2022-07-29T17:03:18.478Z,18.50
2022-07-29T17:05:54.077Z,18.60
2022-07-29T17:08:26.335Z,18.60
2022-07-29T17:11:00.374Z,18.70
2022-07-29T17:13:34.657Z,18.80
2022-07-29T17:16:06.574Z,18.80
2022-07-29T17:18:38.501Z,18.80
2022-07-29T17:21:10.450Z,18.70
2022-07-29T17:23:42.827Z,18.80
2022-07-29T17:26:14.890Z,18.80
2022-07-29T17:28:48.551Z,18.80
2022-07-29T17:31:20.516Z,18.80
2022-07-29T17:33:53.631Z,18.70
2022-07-29T17:36:28.026Z,18.60
2022-07-29T17:39:04.393Z,18.60
2022-07-29T17:41:36.723Z,18.60
2022-07-29T17:44:11.392Z,18.50
2022-07-29T17:46:43.298Z,18.40
2022-07-29T17:49:15.379Z,18.30
2022-07-29T17:51:47.946Z,18.30
2022-07-29T17:54:20.247Z,18.20
2022-07-29T17:56:52.269Z,18.10
2022-07-29T17:59:26.501Z,18.00
2022-07-29T18:02:00.833Z,17.90
2022-07-29T18:04:32.788Z,17.80
2022-07-29T18:07:06.884Z,17.80
2022-07-29T18:09:44.703Z,17.60
2022-07-29T18:12:21.051Z,17.60
2022-07-29T18:14:53.489Z,17.50
2022-07-29T18:17:35.073Z,17.40
2022-07-29T18:20:18.562Z,17.30
2022-07-29T18:22:51.221Z,17.30
2022-07-29T18:25:23.807Z,17.20
2022-07-29T18:28:00.170Z,17.20
2022-07-29T18:30:34.578Z,17.10
2022-07-29T18:33:24.347Z,17.10
2022-07-29T18:36:10.675Z,17.00
2022-07-29T18:38:43.667Z,17.00
2022-07-29T18:41:15.750Z,16.90
2022-07-29T18:43:47.584Z,16.90
2022-07-29T18:46:20.255Z,16.80
2022-07-29T18:48:53.555Z,16.80
2022-07-29T18:51:27.454Z,16.80
2022-07-29T18:53:59.983Z,16.70
2022-07-29T18:56:34.383Z,16.70
2022-07-29T18:59:06.270Z,16.60
2022-07-29T19:01:40.556Z,16.60
2022-07-29T19:04:12.640Z,16.50
2022-07-29T19:06:44.746Z,16.50
2022-07-29T19:09:19.138Z,16.50
2022-07-29T19:11:56.288Z,16.40
2022-07-29T19:14:29.165Z,16.30
2022-07-29T19:17:01.376Z,16.30
2022-07-29T19:19:33.290Z,16.30
2022-07-29T19:22:05.638Z,16.30
2022-07-29T19:24:37.539Z,16.20
2022-07-29T19:27:09.481Z,16.20
2022-07-29T19:29:41.701Z,16.10
2022-07-29T19:32:24.573Z,16.10
2022-07-29T19:35:15.832Z,16.10
2022-07-29T19:37:49.987Z,16.00
2022-07-29T19:40:26.084Z,16.00
2022-07-29T19:42:58.130Z,15.90
2022-07-29T19:45:33.593Z,15.80
2022-07-29T19:48:05.985Z,15.80
2022-07-29T19:50:38.829Z,15.80
2022-07-29T19:53:11.096Z,15.70
2022-07-29T19:55:43.035Z,15.70
2022-07-29T19:58:15.222Z,15.60
2022-07-29T20:00:47.315Z,15.60
2022-07-29T20:03:19.712Z,15.60
2022-07-29T20:05:53.879Z,15.50
2022-07-29T20:08:26.160Z,15.40
2022-07-29T20:10:58.079Z,15.40
2022-07-29T20:13:33.198Z,15.40
2022-07-29T20:16:08.340Z,15.30
2022-07-29T20:18:42.921Z,15.30
2022-07-29T20:21:16.954Z,15.30
2022-07-29T20:23:51.091Z,15.30
2022-07-29T20:26:23.227Z,15.20
2022-07-29T20:28:57.705Z,15.20
2022-07-29T20:31:32.151Z,15.20
2022-07-29T20:34:04.679Z,15.20
2022-07-29T20:36:36.668Z,15.20
2022-07-29T20:39:09.198Z,15.10
2022-07-29T20:41:41.082Z,15.10
2022-07-29T20:44:13.115Z,15.10
2022-07-29T20:46:49.949Z,15.10
2022-07-29T20:49:24.455Z,15.00
2022-07-29T20:51:57.045Z,15.00
2022-07-29T20:54:29.001Z,15.00
2022-07-29T20:57:03.466Z,14.90
2022-07-29T20:59:35.464Z,14.90
2022-07-29T21:02:09.545Z,14.90
2022-07-29T21:04:43.734Z,14.90
2022-07-29T21:07:15.585Z,14.90
2022-07-29T21:09:47.620Z,14.80
2022-07-29T21:12:19.548Z,14.80
2022-07-29T21:14:52.281Z,14.80
2022-07-29T21:17:27.522Z,14.80
2022-07-29T21:20:01.901Z,14.80
2022-07-29T21:22:33.743Z,14.80
2022-07-29T21:25:06.147Z,14.80
2022-07-29T21:27:57.019Z,14.80
2022-07-29T21:30:30.243Z,14.80
2022-07-29T21:33:03.650Z,14.80
2022-07-29T21:36:06.873Z,14.80
2022-07-29T21:38:28.399Z,14.70
2022-07-29T21:41:00.881Z,14.70
2022-07-29T21:43:33.096Z,14.70
2022-07-29T21:46:05.151Z,14.70
2022-07-29T21:48:41.152Z,14.70
2022-07-29T21:51:15.947Z,14.70
2022-07-29T21:53:47.839Z,14.70
2022-07-29T21:56:19.796Z,14.70
2022-07-29T21:58:53.279Z,14.60
2022-07-29T22:01:25.287Z,14.70
2022-07-29T22:03:57.895Z,14.60
2022-07-29T22:06:29.884Z,14.60
2022-07-29T22:09:01.825Z,14.60
2022-07-29T22:11:35.727Z,14.60
2022-07-29T22:14:07.639Z,14.70
2022-07-29T22:16:43.212Z,14.70
2022-07-29T22:19:15.474Z,14.70
2022-07-29T22:21:47.488Z,14.70
2022-07-29T22:24:19.355Z,14.70
2022-07-29T22:26:51.440Z,14.70
2022-07-29T22:29:23.414Z,14.70
2022-07-29T22:31:57.700Z,14.60
2022-07-29T22:34:37.101Z,14.70
2022-07-29T22:37:09.951Z,14.70
2022-07-29T22:39:41.828Z,14.70
2022-07-29T22:42:13.697Z,14.80
2022-07-29T22:44:47.852Z,14.80
2022-07-29T22:47:45.833Z,14.80
2022-07-29T22:50:14.118Z,14.70
2022-07-29T22:52:48.504Z,14.70
2022-07-29T22:55:20.771Z,14.70
2022-07-29T22:57:52.675Z,14.60
2022-07-29T23:00:24.780Z,14.60
2022-07-29T23:02:57.165Z,14.60
2022-07-29T23:05:29.036Z,14.60
2022-07-29T23:08:01.480Z,14.60
2022-07-29T23:10:33.562Z,14.60
2022-07-29T23:13:08.002Z,14.60
2022-07-29T23:15:42.406Z,14.60
2022-07-29T23:18:14.548Z,14.60
2022-07-29T23:20:46.438Z,14.60
2022-07-29T23:23:20.501Z,14.60
2022-07-29T23:25:52.489Z,14.60
2022-07-29T23:28:24.376Z,14.60
2022-07-29T23:30:56.297Z,14.60
2022-07-29T23:33:30.487Z,14.50
2022-07-29T23:36:02.655Z,14.50
2022-07-29T23:38:34.753Z,14.50
2022-07-29T23:41:09.864Z,14.50
2022-07-29T23:43:41.980Z,14.50
2022-07-29T23:46:13.895Z,14.40
2022-07-29T23:48:49.991Z,14.40
2022-07-29T23:51:21.943Z,14.40
2022-07-29T23:53:54.425Z,14.40
2022-07-29T23:56:31.051Z,14.40
2022-07-29T23:59:05.828Z,14.40
